Time;durP1;ratioP1;P1;durP2;ratioP2;P2;SDS_P1;SDS_P2;PMS_P1;PMS_P2;Temp;Humidity;BMP_temperature;BMP_pressure;BME280_temperature;BME280_humidity;BME280_pressure;Samples;Min_cycle;Max_cycle;Signal;HPM_P1;HPM_P2
2021/07/23 00:01:21;;;;;;;7.03;4.97;;;19.20;61.90;;;;;;4995471;28;20418;-92
2021/07/23 00:03:48;;;;;;;8.83;5.50;;;19.10;62.10;;;;;;4994925;28;20230;-92
2021/07/23 00:06:14;;;;;;;7.15;5.07;;;19.00;62.30;;;;;;4998967;28;20191;-91
2021/07/23 00:08:40;;;;;;;5.97;4.93;;;19.00;62.70;;;;;;5009886;28;20199;-91
2021/07/23 00:11:06;;;;;;;6.43;4.57;;;19.00;63.10;;;;;;4995366;28;20710;-92
2021/07/23 00:13:31;;;;;;;8.00;5.50;;;19.00;63.20;;;;;;4995571;28;20454;-91
2021/07/23 00:15:57;;;;;;;8.77;5.93;;;18.90;63.50;;;;;;4996535;28;20918;-92
2021/07/23 00:18:23;;;;;;;7.70;6.10;;;18.90;64.40;;;;;;4996678;28;20179;-91
2021/07/23 00:20:49;;;;;;;7.93;5.30;;;18.90;63.70;;;;;;4998700;28;20187;-91
2021/07/23 00:23:14;;;;;;;7.70;5.20;;;19.00;63.70;;;;;;4998023;28;20207;-91
2021/07/23 00:25:40;;;;;;;8.40;5.93;;;18.80;63.90;;;;;;4996845;28;20175;-92
2021/07/23 00:28:06;;;;;;;8.70;6.30;;;18.90;64.30;;;;;;4997595;28;20549;-91
2021/07/23 00:30:32;;;;;;;8.03;5.43;;;18.80;64.30;;;;;;4997012;28;20433;-91
2021/07/23 00:32:59;;;;;;;10.00;6.32;;;18.80;64.30;;;;;;5000370;28;20544;-91
2021/07/23 00:35:27;;;;;;;8.52;5.78;;;18.90;64.50;;;;;;5000262;28;20523;-91
2021/07/23 00:37:53;;;;;;;10.25;6.25;;;18.80;64.60;;;;;;4999076;28;20183;-91
2021/07/23 00:40:19;;;;;;;9.00;5.00;;;18.70;64.90;;;;;;4997187;28;20705;-91
2021/07/23 00:42:45;;;;;;;10.43;6.30;;;18.60;65.20;;;;;;4996630;28;20199;-92
2021/07/23 00:45:11;;;;;;;7.53;5.90;;;18.60;65.40;;;;;;4998967;28;20622;-92
2021/07/23 00:47:43;;;;;;;9.55;6.07;;;18.80;65.50;;;;;;4999140;28;20210;-91
2021/07/23 00:50:09;;;;;;;9.25;6.60;;;18.70;65.20;;;;;;4997772;28;20183;-91
2021/07/23 00:52:36;;;;;;;11.52;6.30;;;18.70;65.40;;;;;;4997361;28;20203;-92
2021/07/23 00:55:03;;;;;;;9.70;6.63;;;18.70;65.50;;;;;;4997806;28;20183;-91
2021/07/23 00:57:30;;;;;;;9.98;5.78;;;18.70;65.30;;;;;;4997512;28;20198;-91
2021/07/23 00:59:57;;;;;;;10.30;8.57;;;18.70;65.50;;;;;;4997585;28;20195;-91
2021/07/23 01:02:23;;;;;;;10.95;8.00;;;18.80;65.40;;;;;;4999686;28;20203;-91
2021/07/23 01:04:49;;;;;;;9.13;6.40;;;18.70;65.00;;;;;;5000696;28;20518;-91
2021/07/23 01:07:15;;;;;;;8.70;6.70;;;18.70;65.20;;;;;;4998422;28;20348;-91
2021/07/23 01:09:41;;;;;;;12.50;6.57;;;18.60;65.40;;;;;;4999350;28;20705;-92
2021/07/23 01:12:09;;;;;;;15.87;7.83;;;18.60;65.50;;;;;;5010991;28;20190;-90
2021/07/23 01:14:37;;;;;;;10.77;7.28;;;18.40;65.80;;;;;;5001036;28;20194;-92
2021/07/23 01:17:02;;;;;;;10.77;6.50;;;18.50;66.10;;;;;;4999906;28;20215;-91
2021/07/23 01:20:01;;;;;;;13.60;7.83;;;18.40;66.00;;;;;;4999533;28;20183;-91
2021/07/23 01:22:29;;;;;;;11.38;7.43;;;18.50;66.20;;;;;;4994520;28;20532;-91
2021/07/23 01:24:56;;;;;;;13.65;7.28;;;18.50;66.20;;;;;;4998033;28;20190;-91
2021/07/23 01:27:27;;;;;;;13.35;7.35;;;18.50;66.10;;;;;;4998482;28;20211;-91
2021/07/23 01:30:16;;;;;;;15.98;8.60;;;18.40;66.20;;;;;;4998663;28;20179;-91
2021/07/23 01:32:42;;;;;;;11.10;7.30;;;18.50;66.40;;;;;;4997797;28;20222;-91
2021/07/23 01:35:09;;;;;;;11.63;6.93;;;18.40;66.40;;;;;;4999631;28;20203;-91
2021/07/23 01:37:36;;;;;;;11.38;8.10;;;18.40;66.40;;;;;;4998806;28;20591;-91
2021/07/23 01:40:02;;;;;;;13.27;7.72;;;18.40;66.70;;;;;;4999849;28;20179;-90
2021/07/23 01:42:30;;;;;;;10.05;6.60;;;18.30;66.70;;;;;;4998670;28;20752;-91
2021/07/23 01:44:56;;;;;;;13.57;7.93;;;18.20;66.70;;;;;;4998033;28;20242;-91
2021/07/23 01:47:22;;;;;;;12.07;8.60;;;18.30;67.00;;;;;;4999845;28;20210;-91
2021/07/23 01:49:48;;;;;;;9.07;7.05;;;18.20;67.00;;;;;;4999254;28;20179;-91
2021/07/23 01:52:14;;;;;;;14.13;6.88;;;18.30;67.00;;;;;;4998725;28;20223;-91
2021/07/23 01:54:40;;;;;;;10.27;7.30;;;18.20;67.00;;;;;;4998667;28;20175;-92
2021/07/23 01:57:06;;;;;;;12.60;7.10;;;18.20;67.10;;;;;;4998552;28;20270;-91
2021/07/23 01:59:31;;;;;;;13.80;8.03;;;18.20;67.20;;;;;;4999183;28;20182;-91
2021/07/23 02:01:57;;;;;;;9.93;7.17;;;18.20;67.20;;;;;;4998159;28;20446;-92
2021/07/23 02:04:26;;;;;;;13.30;8.40;;;18.10;67.60;;;;;;4999914;28;20227;-91
2021/07/23 02:06:52;;;;;;;11.13;7.55;;;18.20;67.60;;;;;;4999889;28;20210;-91
2021/07/23 02:09:17;;;;;;;11.90;5.77;;;18.00;67.50;;;;;;5000834;28;20171;-91
2021/07/23 02:11:43;;;;;;;12.37;7.30;;;18.00;67.70;;;;;;5001646;28;20222;-92
2021/07/23 02:14:09;;;;;;;11.70;7.40;;;18.00;67.80;;;;;;5010019;28;20260;-91
2021/07/23 02:16:35;;;;;;;17.30;9.07;;;18.00;67.90;;;;;;5017941;28;20175;-91
2021/07/23 02:19:02;;;;;;;14.90;7.00;;;18.00;67.90;;;;;;5012430;28;20619;-91
2021/07/23 02:21:27;;;;;;;13.00;7.72;;;17.90;68.10;;;;;;5002443;28;20173;-91
2021/07/23 02:23:53;;;;;;;10.80;8.17;;;17.80;68.30;;;;;;5001865;28;20221;-91
2021/07/23 02:26:20;;;;;;;16.23;8.07;;;17.80;68.50;;;;;;5002366;28;20231;-91
2021/07/23 02:28:47;;;;;;;10.43;7.65;;;17.80;68.70;;;;;;5001844;28;20175;-91
2021/07/23 02:31:13;;;;;;;12.20;7.68;;;17.70;68.90;;;;;;5002351;28;20176;-90
2021/07/23 02:33:41;;;;;;;17.05;9.20;;;17.80;68.90;;;;;;4986119;28;20314;-91
2021/07/23 02:36:06;;;;;;;13.10;6.90;;;17.80;68.70;;;;;;5002696;28;20209;-91
2021/07/23 02:38:32;;;;;;;11.70;7.70;;;17.70;68.80;;;;;;5002022;28;20190;-91
2021/07/23 02:40:58;;;;;;;14.60;8.60;;;17.80;68.80;;;;;;5002369;28;20179;-91
2021/07/23 02:43:24;;;;;;;16.10;7.30;;;17.70;69.00;;;;;;4999373;28;20619;-91
2021/07/23 02:45:50;;;;;;;14.85;8.95;;;17.70;69.00;;;;;;5000341;28;20210;-92
2021/07/23 02:48:16;;;;;;;13.53;8.20;;;17.60;69.20;;;;;;5001375;28;20262;-91
2021/07/23 02:50:42;;;;;;;15.97;9.73;;;17.60;69.30;;;;;;5001779;28;20422;-91
2021/07/23 02:53:08;;;;;;;14.00;8.27;;;17.60;69.50;;;;;;5000966;28;20529;-91
2021/07/23 02:55:34;;;;;;;13.90;8.40;;;17.60;69.50;;;;;;5001479;28;20183;-91
2021/07/23 02:58:00;;;;;;;21.92;8.50;;;17.60;69.50;;;;;;5002806;28;20241;-91
2021/07/23 03:00:26;;;;;;;15.23;10.00;;;17.60;69.30;;;;;;5002577;28;20178;-91
2021/07/23 03:02:51;;;;;;;14.87;9.50;;;17.60;69.30;;;;;;5003854;28;20203;-91
2021/07/23 03:05:17;;;;;;;12.97;8.57;;;17.50;69.40;;;;;;5001844;28;20422;-91
2021/07/23 03:07:43;;;;;;;13.43;7.70;;;17.50;69.50;;;;;;5003078;28;20211;-91
2021/07/23 03:10:09;;;;;;;14.07;9.38;;;17.40;69.50;;;;;;5002015;28;20653;-91
2021/07/23 03:12:36;;;;;;;11.60;7.15;;;17.40;69.60;;;;;;5001994;28;20682;-91
2021/07/23 03:15:02;;;;;;;11.63;8.10;;;17.30;69.90;;;;;;5002206;28;20191;-91
2021/07/23 03:17:28;;;;;;;15.57;8.27;;;17.30;70.10;;;;;;4999254;28;20569;-91
2021/07/23 03:19:54;;;;;;;13.70;7.70;;;17.40;70.00;;;;;;5000004;28;20176;-91
2021/07/23 03:22:19;;;;;;;14.70;8.40;;;17.40;70.00;;;;;;5007078;28;20292;-90
2021/07/23 03:24:45;;;;;;;13.13;8.93;;;17.30;70.00;;;;;;5012414;28;20182;-89
2021/07/23 03:27:11;;;;;;;14.10;8.80;;;17.30;70.00;;;;;;5009894;28;20203;-90
2021/07/23 03:29:37;;;;;;;17.90;8.43;;;17.40;69.90;;;;;;5010126;28;20630;-90
2021/07/23 03:32:04;;;;;;;13.18;8.00;;;17.30;70.00;;;;;;5000119;28;20662;-92
2021/07/23 03:34:30;;;;;;;15.07;8.27;;;17.20;70.00;;;;;;5002747;28;20183;-90
2021/07/23 03:36:56;;;;;;;12.67;7.40;;;17.30;70.00;;;;;;5009330;28;20183;-90
2021/07/23 03:39:21;;;;;;;14.45;7.68;;;17.30;69.90;;;;;;5009151;28;20202;-90
2021/07/23 03:41:47;;;;;;;13.20;7.77;;;17.30;70.00;;;;;;5009073;28;20246;-90
2021/07/23 03:44:13;;;;;;;11.87;7.90;;;17.30;70.00;;;;;;5009614;28;20187;-91
2021/07/23 03:46:39;;;;;;;12.93;7.77;;;17.10;70.20;;;;;;5008745;28;20462;-90
2021/07/23 03:49:05;;;;;;;15.80;7.27;;;17.10;70.60;;;;;;5011065;28;20179;-90
2021/07/23 03:51:30;;;;;;;16.37;9.50;;;17.20;70.70;;;;;;5011522;28;20179;-90
2021/07/23 03:53:56;;;;;;;11.53;7.87;;;17.20;70.50;;;;;;5010008;28;20422;-90
2021/07/23 03:56:22;;;;;;;11.40;7.93;;;17.10;70.60;;;;;;5005169;28;20194;-90
2021/07/23 03:58:47;;;;;;;14.00;7.20;;;17.10;70.80;;;;;;4998964;28;20638;-90
2021/07/23 04:01:13;;;;;;;13.20;7.80;;;17.20;70.70;;;;;;5009514;28;20642;-90
2021/07/23 04:03:41;;;;;;;14.27;8.67;;;17.20;70.50;;;;;;5009746;28;20612;-89
2021/07/23 04:06:06;;;;;;;14.05;7.63;;;17.10;70.50;;;;;;5010440;28;20171;-90
2021/07/23 04:08:32;;;;;;;12.40;9.40;;;17.10;70.80;;;;;;5010938;28;20286;-90
2021/07/23 04:10:58;;;;;;;12.30;9.02;;;17.20;70.60;;;;;;5010156;28;20183;-90
2021/07/23 04:13:24;;;;;;;13.83;8.60;;;17.10;70.50;;;;;;5010372;28;20214;-90
2021/07/23 04:15:49;;;;;;;10.93;7.47;;;17.10;70.70;;;;;;5010417;28;20179;-90
2021/07/23 04:18:16;;;;;;;16.00;8.77;;;17.10;70.80;;;;;;5007122;28;20213;-90
2021/07/23 04:20:42;;;;;;;10.38;7.50;;;17.10;70.80;;;;;;5007105;28;20298;-90
2021/07/23 04:23:08;;;;;;;13.82;8.85;;;17.20;70.70;;;;;;5012859;28;20202;-90
2021/07/23 04:25:34;;;;;;;11.50;7.40;;;17.10;70.50;;;;;;5014557;28;20211;-89
2021/07/23 04:27:59;;;;;;;11.60;8.20;;;17.20;70.40;;;;;;5013900;28;20241;-88
2021/07/23 04:30:25;;;;;;;12.50;8.30;;;17.20;70.30;;;;;;5017859;28;20178;-90
2021/07/23 04:32:51;;;;;;;11.33;7.67;;;17.20;70.30;;;;;;5016127;28;20211;-90
2021/07/23 04:35:16;;;;;;;15.10;8.57;;;17.20;70.10;;;;;;5016153;28;20422;-90
2021/07/23 04:37:42;;;;;;;18.20;9.10;;;17.20;70.20;;;;;;5017455;28;20234;-90
2021/07/23 04:40:08;;;;;;;13.17;8.30;;;17.30;70.10;;;;;;5016956;28;20171;-90
2021/07/23 04:42:34;;;;;;;10.68;7.13;;;17.20;70.00;;;;;;5016306;28;20199;-89
2021/07/23 04:45:03;;;;;;;17.30;7.57;;;17.20;70.10;;;;;;5017553;28;20198;-90
2021/07/23 04:47:28;;;;;;;16.10;8.32;;;17.20;70.70;;;;;;5016157;28;20987;-90
2021/07/23 04:49:54;;;;;;;13.70;7.70;;;17.30;69.90;;;;;;5008027;28;20187;-90
2021/07/23 04:52:20;;;;;;;14.73;8.33;;;17.30;69.90;;;;;;5005520;28;20249;-90
2021/07/23 04:54:46;;;;;;;14.30;8.50;;;17.10;69.90;;;;;;5002562;28;20197;-91
2021/07/23 04:57:17;;;;;;;14.30;8.63;;;17.20;70.10;;;;;;4996941;28;20179;-91
2021/07/23 04:59:44;;;;;;;12.13;8.30;;;17.30;70.20;;;;;;4996034;28;20827;-91
2021/07/23 05:02:09;;;;;;;12.40;8.63;;;17.20;69.90;;;;;;4995446;28;20202;-91
2021/07/23 05:04:36;;;;;;;11.40;7.83;;;17.40;70.60;;;;;;4997070;28;20175;-91
2021/07/23 05:07:03;;;;;;;13.75;8.57;;;17.40;69.50;;;;;;4995864;28;20278;-91
2021/07/23 05:09:29;;;;;;;11.60;7.65;;;17.40;69.40;;;;;;4997946;28;20175;-91
2021/07/23 05:11:55;;;;;;;15.57;8.80;;;17.50;69.40;;;;;;4994976;28;20266;-91
2021/07/23 05:14:22;;;;;;;17.85;8.15;;;17.60;69.00;;;;;;4993499;28;20256;-91
2021/07/23 05:16:48;;;;;;;13.82;8.13;;;17.60;68.90;;;;;;4996397;28;20202;-91
2021/07/23 05:19:15;;;;;;;14.10;9.27;;;17.40;68.70;;;;;;4993831;28;20214;-90
2021/07/23 05:21:42;;;;;;;15.27;9.95;;;17.50;69.20;;;;;;4993420;28;20215;-90
2021/07/23 05:24:08;;;;;;;13.40;8.52;;;17.40;69.20;;;;;;4996105;28;20183;-91
2021/07/23 05:26:35;;;;;;;21.55;7.90;;;17.60;69.10;;;;;;4993788;28;20222;-91
2021/07/23 05:29:06;;;;;;;13.38;9.63;;;17.70;68.60;;;;;;4995040;28;20181;-90
2021/07/23 05:31:32;;;;;;;13.90;8.18;;;18.10;68.10;;;;;;4977560;28;20351;-91
2021/07/23 05:33:58;;;;;;;9.53;6.70;;;18.70;66.60;;;;;;5009408;28;20263;-90
2021/07/23 05:36:27;;;;;;;9.97;7.50;;;19.20;64.50;;;;;;4994812;28;20546;-91
2021/07/23 05:38:53;;;;;;;11.32;7.93;;;19.50;62.60;;;;;;4993603;28;20433;-91
2021/07/23 05:41:19;;;;;;;13.83;6.70;;;19.80;61.60;;;;;;5002634;28;20179;-91
2021/07/23 05:43:46;;;;;;;10.73;6.87;;;20.60;59.90;;;;;;5011276;28;20450;-90
2021/07/23 05:46:11;;;;;;;13.43;6.80;;;21.20;57.50;;;;;;5002303;28;20969;-91
2021/07/23 05:48:38;;;;;;;12.40;7.70;;;22.20;55.00;;;;;;4993553;28;20553;-91
2021/07/23 05:51:05;;;;;;;13.70;8.17;;;22.60;52.90;;;;;;4993292;28;20651;-91
2021/07/23 05:53:31;;;;;;;11.37;6.17;;;22.90;51.00;;;;;;4993164;28;20439;-91
2021/07/23 05:55:58;;;;;;;7.50;6.77;;;23.20;50.10;;;;;;4994750;28;20951;-91
2021/07/23 05:58:29;;;;;;;7.10;6.17;;;23.50;49.90;;;;;;4993436;28;20430;-91
2021/07/23 06:00:56;;;;;;;9.63;7.07;;;23.90;48.70;;;;;;5001523;28;20462;-91
2021/07/23 06:03:22;;;;;;;10.80;7.30;;;24.10;47.60;;;;;;5001883;28;20438;-90
2021/07/23 06:05:48;;;;;;;10.40;7.10;;;24.60;47.10;;;;;;5001159;28;20981;-91
2021/07/23 06:08:14;;;;;;;7.83;7.00;;;25.10;45.90;;;;;;4997408;28;20472;-91
2021/07/23 06:10:40;;;;;;;8.70;6.93;;;25.20;44.80;;;;;;4993342;28;20431;-91
2021/07/23 06:13:05;;;;;;;10.80;6.23;;;25.70;44.10;;;;;;4994618;28;20281;-92
2021/07/23 06:15:31;;;;;;;7.50;5.60;;;26.00;43.20;;;;;;4994867;28;20421;-91
2021/07/23 06:17:58;;;;;;;7.33;6.63;;;25.90;42.10;;;;;;4993698;28;20430;-92
2021/07/23 06:20:24;;;;;;;9.70;6.70;;;25.80;42.40;;;;;;4993227;28;20195;-91
2021/07/23 06:22:55;;;;;;;7.90;6.93;;;25.80;42.30;;;;;;4992704;28;20498;-91
2021/07/23 06:25:21;;;;;;;8.03;6.23;;;25.60;42.70;;;;;;4994147;28;20175;-91
2021/07/23 06:27:48;;;;;;;11.07;6.97;;;25.80;42.20;;;;;;4993391;28;20460;-91
2021/07/23 06:30:14;;;;;;;10.80;6.20;;;25.80;42.10;;;;;;4992768;28;20936;-92
2021/07/23 06:32:39;;;;;;;9.00;5.87;;;25.90;41.90;;;;;;4994144;28;20437;-92
2021/07/23 06:35:05;;;;;;;10.13;6.90;;;26.20;41.40;;;;;;4992598;28;20425;-92
2021/07/23 06:37:31;;;;;;;9.33;6.20;;;26.50;40.30;;;;;;4992760;28;20193;-92
2021/07/23 06:39:58;;;;;;;8.23;6.37;;;26.50;40.30;;;;;;5009187;28;20449;-91
2021/07/23 06:42:24;;;;;;;8.40;6.20;;;26.60;40.00;;;;;;4994563;28;20199;-91
2021/07/23 06:44:51;;;;;;;10.30;7.07;;;26.50;40.30;;;;;;4994300;28;20960;-92
2021/07/23 06:47:17;;;;;;;9.97;6.20;;;26.70;40.60;;;;;;4993537;28;20458;-92
2021/07/23 06:49:43;;;;;;;8.30;6.50;;;25.90;40.90;;;;;;4993475;28;20795;-92
2021/07/23 06:52:09;;;;;;;8.33;6.43;;;25.80;41.90;;;;;;4993429;28;20438;-92
2021/07/23 06:54:35;;;;;;;7.23;5.60;;;25.70;42.00;;;;;;4992904;28;20186;-92
2021/07/23 06:57:04;;;;;;;9.73;6.27;;;25.50;42.30;;;;;;4996120;28;20185;-91
2021/07/23 06:59:34;;;;;;;11.30;5.97;;;25.40;42.60;;;;;;4997445;28;20766;-92
2021/07/23 07:02:00;;;;;;;6.60;5.80;;;24.80;43.60;;;;;;4996207;28;20516;-92
2021/07/23 07:04:27;;;;;;;11.70;7.40;;;24.40;45.00;;;;;;4999698;28;20436;-92
2021/07/23 07:06:59;;;;;;;9.93;5.53;;;24.10;45.90;;;;;;4997024;28;20501;-91
2021/07/23 07:09:27;;;;;;;9.17;5.80;;;23.70;47.00;;;;;;4998431;28;20415;-92
2021/07/23 07:11:55;;;;;;;16.73;6.67;;;23.50;48.00;;;;;;4999943;28;20496;-91
2021/07/23 07:14:22;;;;;;;6.83;5.53;;;23.40;48.50;;;;;;4997659;28;20434;-91
2021/07/23 07:16:48;;;;;;;7.73;6.93;;;22.90;49.50;;;;;;4998851;28;20449;-92
2021/07/23 07:19:14;;;;;;;7.27;6.23;;;22.80;50.20;;;;;;4997444;28;20422;-92
2021/07/23 07:21:47;;;;;;;7.93;5.47;;;22.70;50.40;;;;;;4996681;28;20422;-91
2021/07/23 07:24:14;;;;;;;15.47;7.33;;;22.60;51.10;;;;;;4998970;28;20178;-92
2021/07/23 07:26:40;;;;;;;9.87;6.10;;;22.30;51.50;;;;;;4996888;28;21014;-91
2021/07/23 07:29:05;;;;;;;8.53;5.90;;;22.00;52.50;;;;;;4998081;28;20501;-92
2021/07/23 07:31:31;;;;;;;9.60;5.97;;;21.90;53.30;;;;;;4997169;28;20418;-92
2021/07/23 07:33:57;;;;;;;9.70;6.40;;;21.90;53.50;;;;;;4996774;28;20238;-91
2021/07/23 07:36:23;;;;;;;9.30;6.57;;;22.10;53.50;;;;;;4999152;28;20175;-91
2021/07/23 07:38:48;;;;;;;12.17;5.80;;;21.90;53.30;;;;;;4996856;28;20183;-92
2021/07/23 07:41:19;;;;;;;7.70;5.63;;;21.90;53.60;;;;;;5001165;28;20191;-91
2021/07/23 07:43:46;;;;;;;6.10;5.50;;;21.80;54.00;;;;;;4998110;28;20615;-91
2021/07/23 07:46:12;;;;;;;11.67;5.90;;;21.60;54.30;;;;;;4998865;28;20527;-92
2021/07/23 07:48:38;;;;;;;6.63;5.40;;;21.40;55.20;;;;;;4998288;28;20470;-92
2021/07/23 07:51:04;;;;;;;11.60;5.63;;;21.40;55.70;;;;;;4995662;28;20429;-91
2021/07/23 07:53:30;;;;;;;10.13;5.90;;;21.40;55.50;;;;;;4995676;28;20439;-92
2021/07/23 07:55:56;;;;;;;11.48;5.70;;;21.30;55.60;;;;;;4997621;28;20176;-91
2021/07/23 07:58:22;;;;;;;9.33;5.97;;;21.20;55.90;;;;;;4995667;28;20189;-91
2021/07/23 08:00:47;;;;;;;7.43;5.80;;;21.30;55.70;;;;;;4996376;28;20270;-92
2021/07/23 08:03:13;;;;;;;7.37;6.40;;;21.20;56.00;;;;;;4996403;28;20203;-92
2021/07/23 08:05:39;;;;;;;6.33;5.17;;;21.30;55.90;;;;;;4998131;28;20186;-92
2021/07/23 08:08:08;;;;;;;6.57;5.03;;;21.20;55.50;;;;;;4981361;28;20301;-92
2021/07/23 08:10:36;;;;;;;11.98;5.95;;;21.10;56.00;;;;;;4998991;28;20422;-92
2021/07/23 08:13:03;;;;;;;5.63;5.03;;;21.10;56.50;;;;;;4998935;28;20211;-91
2021/07/23 08:15:29;;;;;;;8.73;5.10;;;21.20;56.60;;;;;;4997906;28;20183;-92
2021/07/23 08:17:54;;;;;;;7.27;5.60;;;21.10;56.00;;;;;;4997211;28;20761;-90
2021/07/23 08:20:20;;;;;;;6.37;5.33;;;21.20;56.00;;;;;;4998692;28;20612;-90
2021/07/23 08:22:46;;;;;;;10.00;5.37;;;21.40;56.00;;;;;;4997664;28;20738;-90
2021/07/23 08:25:12;;;;;;;8.47;5.50;;;21.50;55.80;;;;;;4997155;28;20418;-90
2021/07/23 08:27:38;;;;;;;9.75;6.15;;;21.40;55.20;;;;;;4998727;28;20458;-90
2021/07/23 08:30:05;;;;;;;6.50;5.07;;;21.20;54.90;;;;;;4998392;28;20249;-90
2021/07/23 08:32:36;;;;;;;8.25;5.53;;;21.40;54.70;;;;;;5010491;28;20210;-90
2021/07/23 08:35:06;;;;;;;13.43;5.22;;;21.40;55.20;;;;;;4999568;28;20194;-90
2021/07/23 08:37:33;;;;;;;5.20;4.70;;;21.40;55.00;;;;;;5012696;28;20182;-90
2021/07/23 08:39:59;;;;;;;5.43;4.32;;;21.30;54.80;;;;;;5003206;28;20291;-91
2021/07/23 08:42:30;;;;;;;5.97;5.32;;;21.40;54.50;;;;;;4999014;28;20222;-91
2021/07/23 08:44:57;;;;;;;5.53;4.97;;;21.50;54.60;;;;;;5007474;28;20194;-91
2021/07/23 08:47:23;;;;;;;10.25;5.50;;;21.40;53.90;;;;;;5007707;28;20199;-91
2021/07/23 08:49:51;;;;;;;6.57;4.90;;;21.50;54.40;;;;;;5001864;28;20167;-90
2021/07/23 08:52:17;;;;;;;6.85;5.45;;;21.60;54.30;;;;;;5005778;28;20249;-90
2021/07/23 08:54:44;;;;;;;9.38;5.50;;;21.60;53.80;;;;;;5002539;28;20202;-91
2021/07/23 08:57:11;;;;;;;8.07;5.40;;;21.60;53.90;;;;;;5001901;28;20178;-91
2021/07/23 08:59:37;;;;;;;7.55;5.43;;;21.70;54.10;;;;;;5003128;28;20198;-90
2021/07/23 09:02:06;;;;;;;9.00;5.87;;;21.70;54.50;;;;;;4999879;28;20206;-91
2021/07/23 09:04:37;;;;;;;6.63;5.03;;;21.70;54.50;;;;;;4996248;28;20501;-91
2021/07/23 09:07:12;;;;;;;11.23;6.00;;;21.90;54.20;;;;;;5014606;28;20211;-89
2021/07/23 09:09:38;;;;;;;9.97;6.13;;;22.00;53.10;;;;;;5009197;28;20442;-91
2021/07/23 09:12:04;;;;;;;8.40;6.80;;;21.90;52.80;;;;;;4995743;28;20450;-91
2021/07/23 09:14:30;;;;;;;15.60;5.60;;;21.80;52.80;;;;;;4994364;28;20426;-90
2021/07/23 09:16:57;;;;;;;6.73;5.80;;;21.90;53.30;;;;;;4994406;28;20787;-90
2021/07/23 09:19:23;;;;;;;11.27;6.40;;;21.70;53.60;;;;;;4993444;28;20473;-91
2021/07/23 09:21:58;;;;;;;10.90;5.80;;;21.90;53.80;;;;;;4993518;28;20442;-90
2021/07/23 09:24:24;;;;;;;7.60;5.17;;;21.90;53.40;;;;;;4995182;28;20418;-91
2021/07/23 09:26:51;;;;;;;8.60;5.47;;;21.80;54.20;;;;;;4999536;28;20502;-91
2021/07/23 09:29:17;;;;;;;8.00;5.30;;;21.80;53.40;;;;;;4998518;28;20427;-91
2021/07/23 09:32:08;;;;;;;13.27;5.83;;;21.90;53.40;;;;;;4998792;28;20473;-91
2021/07/23 09:34:34;;;;;;;6.20;4.83;;;21.90;53.80;;;;;;5006131;28;20406;-91
2021/07/23 09:37:07;;;;;;;7.40;5.93;;;22.10;53.40;;;;;;4995858;28;20445;-91
2021/07/23 09:39:33;;;;;;;8.07;6.03;;;22.20;53.00;;;;;;4994448;28;21028;-91
2021/07/23 09:42:02;;;;;;;7.00;5.50;;;22.20;52.80;;;;;;4993492;28;20474;-91
2021/07/23 09:44:29;;;;;;;7.63;5.73;;;22.20;52.90;;;;;;4996284;28;20244;-91
2021/07/23 09:46:54;;;;;;;11.13;5.63;;;22.00;52.90;;;;;;4994257;28;20977;-90
2021/07/23 09:49:30;;;;;;;7.83;6.57;;;22.20;52.80;;;;;;4994107;28;20430;-90
2021/07/23 09:52:01;;;;;;;8.90;6.33;;;22.30;52.50;;;;;;4995916;28;20236;-91
2021/07/23 09:54:28;;;;;;;9.07;6.23;;;22.30;52.20;;;;;;4995628;28;20827;-91
2021/07/23 09:56:54;;;;;;;7.63;5.50;;;22.40;52.20;;;;;;5003022;28;20520;-91
2021/07/23 09:59:33;;;;;;;7.27;6.20;;;22.40;51.80;;;;;;4994854;28;20422;-91
2021/07/23 10:02:06;;;;;;;6.93;5.47;;;22.40;51.80;;;;;;4994305;28;20489;-91
2021/07/23 10:05:04;;;;;;;7.40;6.00;;;22.30;51.70;;;;;;4995088;28;20426;-90
2021/07/23 10:07:36;;;;;;;7.30;5.33;;;22.50;51.10;;;;;;4993371;28;20489;-91
2021/07/23 10:10:02;;;;;;;7.20;5.70;;;22.60;50.90;;;;;;4994720;28;20901;-91
2021/07/23 10:12:29;;;;;;;7.80;6.13;;;22.70;51.20;;;;;;4993652;28;20457;-90
2021/07/23 10:14:56;;;;;;;7.67;5.77;;;22.70;51.40;;;;;;4994171;28;20470;-91
2021/07/23 10:17:24;;;;;;;6.60;5.50;;;22.60;51.00;;;;;;4994312;28;20481;-91
2021/07/23 10:19:55;;;;;;;5.40;4.87;;;22.50;51.10;;;;;;4993963;28;20496;-91
2021/07/23 10:22:21;;;;;;;6.60;5.00;;;22.50;51.00;;;;;;4993756;28;20814;-90
2021/07/23 10:24:48;;;;;;;8.13;5.73;;;22.60;51.10;;;;;;4995027;28;20430;-91
2021/07/23 10:27:13;;;;;;;9.13;5.07;;;22.80;50.50;;;;;;4993886;28;20512;-90
2021/07/23 10:29:46;;;;;;;12.47;5.80;;;22.80;49.10;;;;;;5000593;28;20418;-91
2021/07/23 10:32:27;;;;;;;6.87;4.53;;;22.70;49.40;;;;;;5000389;28;20203;-90
2021/07/23 10:34:55;;;;;;;9.10;5.57;;;22.60;49.70;;;;;;4998457;28;20434;-91
2021/07/23 10:37:30;;;;;;;6.83;4.73;;;22.70;50.20;;;;;;4996839;28;20449;-91
2021/07/23 10:40:08;;;;;;;6.17;5.10;;;22.80;50.20;;;;;;4996883;28;20951;-90
2021/07/23 10:42:36;;;;;;;7.73;5.00;;;22.90;50.10;;;;;;4996813;28;20477;-91
2021/07/23 10:45:07;;;;;;;6.00;4.43;;;22.80;50.10;;;;;;4997196;28;20502;-90
2021/07/23 10:47:40;;;;;;;12.67;5.30;;;22.90;49.90;;;;;;4997271;28;20462;-91
2021/07/23 10:50:30;;;;;;;7.87;5.00;;;23.00;49.70;;;;;;4998542;28;20819;-91
2021/07/23 10:53:16;;;;;;;8.67;5.73;;;23.10;48.50;;;;;;4996465;28;20466;-91
2021/07/23 10:55:45;;;;;;;6.80;4.97;;;23.00;48.10;;;;;;4999099;28;20459;-91
2021/07/23 10:58:11;;;;;;;6.87;5.10;;;23.30;49.20;;;;;;4998445;28;20419;-91
2021/07/23 11:00:47;;;;;;;7.73;5.73;;;23.30;48.30;;;;;;5001499;28;20421;-91
2021/07/23 11:03:35;;;;;;;7.63;4.70;;;23.30;48.00;;;;;;5013278;28;20509;-91
2021/07/23 11:06:12;;;;;;;11.33;5.20;;;23.30;48.10;;;;;;4997323;28;20501;-91
2021/07/23 11:08:47;;;;;;;11.33;5.30;;;23.40;48.00;;;;;;4999571;28;20462;-91
2021/07/23 11:11:14;;;;;;;6.27;4.70;;;23.40;47.80;;;;;;4997684;28;20418;-91
2021/07/23 11:13:44;;;;;;;7.23;4.90;;;23.40;47.90;;;;;;4996892;28;20458;-91
2021/07/23 11:16:12;;;;;;;7.90;4.33;;;23.40;47.50;;;;;;4998180;28;20462;-91
2021/07/23 11:18:53;;;;;;;8.63;5.03;;;23.60;47.10;;;;;;4997435;28;20423;-91
2021/07/23 11:21:20;;;;;;;6.43;4.43;;;23.60;46.00;;;;;;4997940;28;20473;-91
2021/07/23 11:23:47;;;;;;;5.50;4.20;;;23.60;46.00;;;;;;4996590;28;20446;-92
2021/07/23 11:26:14;;;;;;;6.80;3.90;;;23.60;46.90;;;;;;4997213;28;20416;-91
2021/07/23 11:28:49;;;;;;;7.67;5.00;;;23.70;46.40;;;;;;4997583;28;20497;-92
2021/07/23 11:31:30;;;;;;;4.77;4.30;;;23.60;46.60;;;;;;4996089;28;20423;-91
2021/07/23 11:33:56;;;;;;;6.53;4.40;;;23.70;46.70;;;;;;4999094;28;20410;-91
2021/07/23 11:36:39;;;;;;;4.90;4.37;;;23.80;45.40;;;;;;5010748;28;20414;-91
2021/07/23 11:39:07;;;;;;;5.20;4.30;;;23.80;44.20;;;;;;4996335;28;20422;-92
2021/07/23 11:41:34;;;;;;;6.27;3.93;;;23.90;43.60;;;;;;4997475;28;20446;-91
2021/07/23 11:44:10;;;;;;;7.63;3.80;;;23.90;44.00;;;;;;4996645;28;20434;-91
2021/07/23 11:46:37;;;;;;;9.03;4.57;;;24.00;44.40;;;;;;4997903;28;20462;-91
2021/07/23 11:49:04;;;;;;;5.70;3.90;;;23.90;43.60;;;;;;4999729;28;20864;-91
2021/07/23 11:51:59;;;;;;;4.70;4.20;;;23.90;43.70;;;;;;4996022;28;20429;-91
2021/07/23 11:54:26;;;;;;;7.50;4.50;;;23.90;43.10;;;;;;4989697;28;20511;-92
2021/07/23 11:56:52;;;;;;;5.93;3.60;;;24.00;42.80;;;;;;4995538;28;20509;-91
2021/07/23 11:59:18;;;;;;;11.20;4.20;;;24.00;42.00;;;;;;4995889;28;20416;-91
2021/07/23 12:01:44;;;;;;;5.73;4.03;;;24.00;42.40;;;;;;4996688;28;20452;-92
2021/07/23 12:04:10;;;;;;;6.70;4.53;;;24.00;42.50;;;;;;4996243;28;20536;-91
2021/07/23 12:06:39;;;;;;;5.07;3.50;;;24.00;42.60;;;;;;4996272;28;20675;-90
2021/07/23 12:09:08;;;;;;;5.30;4.30;;;24.20;42.60;;;;;;5012018;28;20520;-91
2021/07/23 12:11:34;;;;;;;6.03;4.43;;;24.20;42.10;;;;;;4998263;28;20752;-91
2021/07/23 12:14:11;;;;;;;5.33;3.60;;;24.30;42.50;;;;;;4997509;28;20453;-91
2021/07/23 12:16:39;;;;;;;11.53;3.83;;;24.20;42.60;;;;;;4998846;28;20512;-91
2021/07/23 12:19:09;;;;;;;5.73;4.47;;;24.30;42.00;;;;;;5004323;28;20430;-91
2021/07/23 12:21:36;;;;;;;5.50;4.03;;;24.40;41.90;;;;;;4999412;28;20418;-91
2021/07/23 12:24:04;;;;;;;4.30;3.67;;;24.40;42.30;;;;;;4999923;28;20418;-91
2021/07/23 12:26:34;;;;;;;5.70;4.10;;;24.40;42.20;;;;;;5001165;28;20419;-91
2021/07/23 12:29:01;;;;;;;6.97;4.33;;;24.40;41.70;;;;;;4999867;28;20462;-91
2021/07/23 12:31:27;;;;;;;8.00;4.23;;;24.60;41.10;;;;;;5013978;28;20417;-92
2021/07/23 12:34:21;;;;;;;4.93;3.87;;;24.50;41.00;;;;;;5017677;28;20461;-92
2021/07/23 12:36:51;;;;;;;5.17;3.10;;;24.60;41.10;;;;;;5017874;28;20416;-92
2021/07/23 12:39:22;;;;;;;7.50;3.60;;;24.70;41.10;;;;;;5017083;28;20513;-92
2021/07/23 12:41:48;;;;;;;4.70;3.90;;;24.90;40.80;;;;;;5017578;28;20445;-92
2021/07/23 12:44:16;;;;;;;7.60;3.80;;;24.80;39.70;;;;;;5017438;28;20722;-91
2021/07/23 12:46:44;;;;;;;6.30;3.80;;;24.80;39.40;;;;;;5015864;28;20513;-91